»·PEaware :: UAL550 KSFO-KPDX

UAL550 :: KSFO-KPDX

FLIGHT INFORMATION

Flight Status: Arrived
Operator:
United Airlines
More flights by this operator :: More flights under this callsign
Pilot: Anonymous 20536 (20536)
Aircraft: BOEING 737-800
(B738)
More flights by this aircraft type
Origin: KSFO San Francisco Intl
United States
Destination: KPDX Portland Intl
United States
More flights between these airports :: More routes between these airports
Route: TRUKN2 GRTFL MACHU TMBRS2
File this flight plan on PilotEdge
Remarks: First time on PE
Altitude:
(Current/Filed)
34,000ft
Speed:
(Current/Filed)
115kts
Departed: 21-Sep-18 09:21 PM
Arrived: 21-Sep-18 10:37 PM
Distance/Time
Traveled:
478nm/1:15
Distance/Time
To Go:
Arrived

Flight Plot

Page will automatically refresh every two minutes.


Map Options




Map Legend


Flown Route
Filed Route
Departure Airport
Arrival Airport
Navaid (VOR, NDB)
Fix

Horizontal Profiles

Position Reports

Time Latitude Longitude Heading Altitude Ground
Speed
21-Sep-18 21:03 37.619187 -122.383519 291 20ft 0kts
21-Sep-18 21:04 37.619187 -122.383519 291 20ft 0kts
21-Sep-18 21:05 37.619187 -122.383519 291 20ft 0kts
21-Sep-18 21:06 37.619187 -122.383519 291 20ft 0kts
21-Sep-18 21:07 37.619187 -122.383519 291 20ft 0kts
21-Sep-18 21:08 37.619187 -122.383519 291 20ft 0kts
21-Sep-18 21:09 37.619187 -122.383519 291 20ft 0kts
21-Sep-18 21:10 37.619109 -122.383266 301 20ft 2kts
21-Sep-18 21:11 37.618641 -122.383123 33 21ft 1kts
21-Sep-18 21:12 37.618608 -122.383148 28 20ft 0kts
21-Sep-18 21:13 37.618823 -122.383005 27 20ft 8kts
21-Sep-18 21:14 37.619168 -122.380840 118 20ft 20kts
21-Sep-18 21:15 37.614478 -122.381062 208 21ft 15kts
21-Sep-18 21:16 37.610039 -122.384094 216 21ft 5kts
21-Sep-18 21:17 37.609380 -122.384686 207 21ft 5kts
21-Sep-18 21:18 37.608466 -122.383876 117 21ft 0kts
21-Sep-18 21:19 37.608466 -122.383876 117 21ft 0kts
21-Sep-18 21:20 37.608331 -122.383550 117 21ft 10kts
21-Sep-18 21:21 37.608470 -122.382551 30 21ft 0kts
21-Sep-18 21:22 37.608844 -122.382298 27 21ft 29kts
21-Sep-18 21:23 37.641750 -122.355397 46 1128ft 206kts
21-Sep-18 21:24 37.680601 -122.285337 55 3972ft 268kts
21-Sep-18 21:25 37.733638 -122.220536 18 7708ft 281kts
21-Sep-18 21:26 37.814592 -122.217061 359 10518ft 318kts
21-Sep-18 21:27 37.905913 -122.219496 358 13425ft 339kts
21-Sep-18 21:28 38.002041 -122.222050 357 16283ft 354kts
21-Sep-18 21:29 38.101093 -122.224690 357 18921ft 366kts
21-Sep-18 21:30 38.198303 -122.227295 356 21138ft 378kts
21-Sep-18 21:31 38.305045 -122.230148 355 23268ft 391kts
21-Sep-18 21:32 38.414487 -122.237680 351 25182ft 401kts
21-Sep-18 21:33 38.527073 -122.250027 351 26932ft 413kts
21-Sep-18 21:34 38.642937 -122.262576 351 28488ft 425kts
21-Sep-18 21:35 38.761240 -122.275378 351 30170ft 429kts
21-Sep-18 21:36 38.879438 -122.288187 350 31942ft 426kts
21-Sep-18 21:37 38.996694 -122.300901 350 33577ft 422kts
21-Sep-18 21:38 39.115145 -122.313805 351 33985ft 444kts
21-Sep-18 21:39 39.241549 -122.327505 351 33990ft 471kts
21-Sep-18 21:40 39.374116 -122.341843 350 33989ft 486kts
21-Sep-18 21:41 39.508583 -122.356410 350 33987ft 487kts
21-Sep-18 21:42 39.642706 -122.370958 350 33988ft 487kts
21-Sep-18 21:43 39.777435 -122.385559 350 33981ft 487kts
21-Sep-18 21:44 39.911849 -122.400154 350 33980ft 487kts
21-Sep-18 21:45 40.046552 -122.414769 350 33980ft 487kts
21-Sep-18 21:46 40.179685 -122.429215 350 33976ft 487kts
21-Sep-18 21:47 40.314464 -122.443823 349 33977ft 487kts
21-Sep-18 21:48 40.449028 -122.458444 349 33977ft 487kts
21-Sep-18 21:49 40.583176 -122.473004 350 33977ft 487kts
21-Sep-18 21:50 40.717975 -122.487637 350 33978ft 487kts
21-Sep-18 21:51 40.852514 -122.502239 349 34043ft 487kts
21-Sep-18 21:52 40.986937 -122.516831 349 34077ft 486kts
21-Sep-18 21:53 41.117597 -122.531027 349 34122ft 487kts
21-Sep-18 21:54 41.248366 -122.545228 349 34121ft 486kts
21-Sep-18 21:55 41.383076 -122.559875 350 34122ft 487kts
21-Sep-18 21:56 41.517383 -122.574470 350 34123ft 487kts
21-Sep-18 21:57 41.653021 -122.583871 352 34084ft 489kts
21-Sep-18 21:58 41.788203 -122.592606 352 34088ft 490kts
21-Sep-18 21:59 41.924022 -122.601479 352 34088ft 490kts
21-Sep-18 22:00 42.059469 -122.610379 352 34088ft 490kts
21-Sep-18 22:01 42.193364 -122.619222 352 34031ft 489kts
21-Sep-18 22:02 42.329165 -122.628260 351 34030ft 491kts
21-Sep-18 22:03 42.465144 -122.637372 351 34030ft 491kts
21-Sep-18 22:04 42.601241 -122.646530 351 34030ft 491kts
21-Sep-18 22:05 42.735909 -122.655597 350 34041ft 490kts
21-Sep-18 22:06 42.871698 -122.664727 350 34029ft 485kts
21-Sep-18 22:07 43.001671 -122.673446 349 34093ft 467kts
21-Sep-18 22:08 43.127142 -122.682070 349 34082ft 467kts
21-Sep-18 22:09 43.249260 -122.690475 349 34084ft 467kts
21-Sep-18 22:10 43.378545 -122.699382 348 34085ft 468kts
21-Sep-18 22:11 43.485374 -122.706607 348 34065ft 443kts
21-Sep-18 22:12 43.627922 -122.716558 348 34086ft 442kts
21-Sep-18 22:13 43.729672 -122.723703 348 33408ft 450kts
21-Sep-18 22:14 43.876638 -122.733919 348 29610ft 452kts
21-Sep-18 22:15 43.978665 -122.740947 348 27553ft 436kts
21-Sep-18 22:16 44.097215 -122.749164 348 25093ft 421kts
21-Sep-18 22:17 44.220022 -122.729230 354 24954ft 406kts
21-Sep-18 22:18 44.314904 -122.724124 353 24947ft 413kts
21-Sep-18 22:19 44.445987 -122.717273 353 22772ft 402kts
21-Sep-18 22:20 44.537534 -122.712527 353 20942ft 393kts
21-Sep-18 22:21 44.645040 -122.704487 355 18820ft 384kts
21-Sep-18 22:22 44.748523 -122.693753 355 17018ft 368kts
21-Sep-18 22:23 44.847730 -122.683554 355 15503ft 346kts
21-Sep-18 22:24 44.941370 -122.674044 355 13512ft 328kts
21-Sep-18 22:25 45.026420 -122.665366 355 12486ft 295kts
21-Sep-18 22:26 45.105691 -122.657423 356 11155ft 286kts
21-Sep-18 22:27 45.182556 -122.649621 356 9783ft 279kts
21-Sep-18 22:28 45.258677 -122.634819 21 8409ft 284kts
21-Sep-18 22:29 45.324060 -122.576193 29 7442ft 271kts
21-Sep-18 22:30 45.386120 -122.520066 29 6301ft 263kts
21-Sep-18 22:31 45.424027 -122.441472 94 5011ft 242kts
21-Sep-18 22:32 45.413179 -122.359072 74 4602ft 218kts
21-Sep-18 22:33 45.461211 -122.320722 343 3488ft 205kts
21-Sep-18 22:34 45.503176 -122.363657 296 3015ft 186kts
21-Sep-18 22:35 45.528931 -122.426943 294 2288ft 182kts
21-Sep-18 22:36 45.552934 -122.488215 295 1320ft 167kts
21-Sep-18 22:37 45.572948 -122.539669 296 546ft 147kts
21-Sep-18 22:38 45.591206 -122.586425 298 37ft 62kts
21-Sep-18 22:39 45.591501 -122.592523 122 37ft 12kts
21-Sep-18 22:40 45.590251 -122.591558 207 37ft 0kts
21-Sep-18 22:41 45.590251 -122.591558 207 37ft 0kts
21-Sep-18 22:42 45.590251 -122.591558 207 37ft 0kts
21-Sep-18 22:43 45.590251 -122.591558 207 37ft 0kts

Navigation Log

Ident Type
1. KSFO Airport
2. KPDX Airport